Time;durP1;ratioP1;P1;durP2;ratioP2;P2;SDS_P1;SDS_P2;PMS_P1;PMS_P2;Temp;Humidity;BMP_temperature;BMP_pressure;BME280_temperature;BME280_humidity;BME280_pressure;Samples;Min_cycle;Max_cycle;Signal;HPM_P1;HPM_P2
2021/06/16 00:03:02;;;;;;;11.63;6.28;;;;;;;22.14;68.88;100578.13;4785288;30;20054;-75
2021/06/16 00:06:06;;;;;;;10.80;6.65;;;;;;;22.07;69.40;100574.50;4785792;29;20082;-77
2021/06/16 00:09:10;;;;;;;9.18;6.20;;;;;;;22.14;69.22;100578.13;4790745;29;20051;-78
2021/06/16 00:12:15;;;;;;;8.13;6.35;;;;;;;22.08;69.29;100565.25;4790423;30;20510;-76
2021/06/16 00:15:27;;;;;;;11.18;6.20;;;;;;;22.09;69.35;100579.78;4780512;30;20058;-76
2021/06/16 00:18:32;;;;;;;8.93;6.07;;;;;;;22.06;69.29;100572.81;4791447;30;20063;-76
2021/06/16 00:21:37;;;;;;;9.88;5.72;;;;;;;22.11;69.57;100567.59;4780392;30;20054;-79
2021/06/16 00:24:42;;;;;;;10.25;6.20;;;;;;;22.18;69.32;100554.78;4791643;30;20078;-76
2021/06/16 00:27:47;;;;;;;10.35;6.40;;;;;;;22.06;69.66;100563.75;4791621;30;20070;-78
2021/06/16 00:30:51;;;;;;;11.25;6.40;;;;;;;21.96;69.99;100556.78;4791317;30;20058;-76
2021/06/16 00:33:55;;;;;;;9.88;6.13;;;;;;;21.98;70.48;100572.97;4791505;30;20059;-75
2021/06/16 00:37:00;;;;;;;11.35;6.25;;;;;;;21.92;70.50;100569.16;4791146;30;20131;-75
2021/06/16 00:40:11;;;;;;;9.57;6.30;;;;;;;21.90;70.62;100556.75;4791433;30;20051;-75
2021/06/16 00:43:15;;;;;;;8.57;5.90;;;;;;;21.84;70.77;100560.25;4790813;30;20071;-76
2021/06/16 00:46:19;;;;;;;10.07;6.40;;;;;;;21.85;70.76;100572.94;4779780;30;20055;-75
2021/06/16 00:49:23;;;;;;;14.55;6.30;;;;;;;21.79;70.75;100563.63;4790390;30;20070;-76
2021/06/16 00:52:28;;;;;;;10.43;6.60;;;;;;;21.71;71.46;100560.19;4791148;30;20059;-76
2021/06/16 00:55:37;;;;;;;10.10;6.18;;;;;;;21.67;71.43;100558.91;4790923;30;20444;-75
2021/06/16 00:58:42;;;;;;;11.32;6.75;;;;;;;21.65;71.74;100561.81;4790729;30;20054;-78
2021/06/16 01:01:48;;;;;;;10.45;6.40;;;;;;;21.59;72.27;100570.00;4779687;30;20059;-75
2021/06/16 01:04:54;;;;;;;8.75;7.05;;;;;;;21.57;71.81;100558.44;4790793;30;20389;-75
2021/06/16 01:08:02;;;;;;;9.57;6.00;;;;;;;21.75;71.42;100570.50;4772843;30;20051;-75
2021/06/16 01:11:10;;;;;;;8.23;5.72;;;;;;;21.74;71.42;100565.25;4761692;30;20058;-76
2021/06/16 01:14:19;;;;;;;8.43;6.93;;;;;;;21.77;71.34;100562.97;4761780;30;20059;-75
2021/06/16 01:17:37;;;;;;;9.80;6.20;;;;;;;21.69;71.66;100565.00;4772688;30;20071;-75
2021/06/16 01:20:45;;;;;;;8.50;6.30;;;;;;;21.73;71.86;100564.41;4772709;30;20055;-76
2021/06/16 01:23:56;;;;;;;12.25;6.85;;;;;;;21.79;71.46;100570.97;4761454;30;20055;-76
2021/06/16 01:27:02;;;;;;;7.88;6.63;;;;;;;21.78;71.16;100561.91;4761567;30;20491;-77
2021/06/16 01:30:07;;;;;;;7.75;6.53;;;;;;;21.77;71.22;100552.03;4772366;30;20074;-77
2021/06/16 01:33:13;;;;;;;8.45;6.18;;;;;;;21.73;71.66;100560.81;4771566;30;20064;-77
2021/06/16 01:36:20;;;;;;;8.57;6.18;;;;;;;21.69;71.74;100563.13;4772336;30;20074;-76
2021/06/16 01:39:29;;;;;;;9.30;6.38;;;;;;;21.63;71.91;100554.88;4772265;30;20055;-76
2021/06/16 01:42:34;;;;;;;7.93;6.47;;;;;;;21.54;72.17;100550.63;4771284;30;20075;-76
2021/06/16 01:45:40;;;;;;;10.38;6.32;;;;;;;21.61;72.16;100551.50;4772050;30;20070;-76
2021/06/16 01:48:47;;;;;;;9.18;6.50;;;;;;;21.57;72.14;100555.69;4760753;30;20063;-75
2021/06/16 01:51:52;;;;;;;7.47;6.50;;;;;;;21.62;72.20;100554.06;4760974;30;20511;-75
2021/06/16 01:54:59;;;;;;;12.68;6.93;;;;;;;21.55;72.43;100535.94;4771972;30;20067;-76
2021/06/16 01:58:03;;;;;;;11.65;6.32;;;;;;;21.51;72.25;100538.22;4770904;30;20424;-76
2021/06/16 02:01:09;;;;;;;10.10;6.65;;;;;;;21.54;72.15;100542.44;4760769;30;20067;-76
2021/06/16 02:04:14;;;;;;;9.27;6.38;;;;;;;21.62;72.68;100545.00;4771986;30;20058;-76
2021/06/16 02:07:24;;;;;;;8.23;6.25;;;;;;;21.47;72.53;100531.47;4771593;30;20408;-76
2021/06/16 02:10:50;;;;;;;8.32;6.97;;;;;;;21.51;72.63;100529.16;4771941;30;20059;-76
2021/06/16 02:13:58;;;;;;;9.00;6.60;;;;;;;21.44;72.82;100528.28;4750511;30;20499;-76
2021/06/16 02:17:08;;;;;;;9.82;6.50;;;;;;;21.33;72.89;100529.72;4771526;30;20054;-76
2021/06/16 02:20:13;;;;;;;10.02;6.70;;;;;;;21.32;73.33;100537.06;4760479;30;20055;-76
2021/06/16 02:23:17;;;;;;;7.03;6.32;;;;;;;21.29;73.36;100521.06;4771797;30;20404;-75
2021/06/16 02:26:23;;;;;;;10.20;6.95;;;;;;;21.27;73.49;100522.31;4771465;30;20080;-78
2021/06/16 02:29:30;;;;;;;11.98;8.13;;;;;;;21.26;73.42;100523.34;4770738;30;20052;-78
2021/06/16 02:32:36;;;;;;;9.35;7.50;;;;;;;21.30;73.83;100520.03;4771359;30;20047;-75
2021/06/16 02:35:41;;;;;;;7.47;6.78;;;;;;;21.20;73.90;100525.00;4767550;30;20051;-75
2021/06/16 02:38:48;;;;;;;8.85;7.53;;;;;;;21.22;74.00;100522.91;4789187;30;20055;-75
2021/06/16 02:41:53;;;;;;;9.93;6.80;;;;;;;21.15;74.26;100515.72;4778017;30;20062;-75
2021/06/16 02:45:00;;;;;;;9.88;7.65;;;;;;;21.13;73.99;100513.16;4789029;30;20544;-77
2021/06/16 02:48:07;;;;;;;10.20;7.55;;;;;;;21.17;73.96;100508.16;4788739;30;20054;-76
2021/06/16 02:51:12;;;;;;;8.23;6.70;;;;;;;21.18;73.96;100509.84;4789039;30;20059;-75
2021/06/16 02:54:20;;;;;;;9.60;7.40;;;;;;;21.12;74.12;100503.31;4777876;30;20491;-75
2021/06/16 02:57:26;;;;;;;9.20;7.93;;;;;;;21.14;74.07;100505.81;4789154;30;20059;-75
2021/06/16 03:00:32;;;;;;;8.48;7.45;;;;;;;21.12;73.93;100511.50;4788891;30;20384;-75
2021/06/16 03:03:38;;;;;;;10.45;6.75;;;;;;;21.13;74.16;100510.44;4788972;30;20058;-77
2021/06/16 03:06:43;;;;;;;9.13;7.30;;;;;;;21.12;74.11;100513.38;4767377;30;20055;-77
2021/06/16 03:09:48;;;;;;;8.18;7.18;;;;;;;21.05;74.44;100502.41;4788468;30;20050;-76
2021/06/16 03:12:55;;;;;;;9.68;6.70;;;;;;;21.07;74.45;100521.31;4788744;30;20101;-75
2021/06/16 03:16:01;;;;;;;13.18;7.45;;;;;;;20.98;74.58;100506.94;4777239;30;20633;-76
2021/06/16 03:19:08;;;;;;;8.82;7.30;;;;;;;21.02;74.59;100519.16;4789002;30;20054;-76
2021/06/16 03:22:13;;;;;;;9.85;7.50;;;;;;;21.00;74.90;100520.38;4788677;30;20503;-75
2021/06/16 03:25:18;;;;;;;12.52;7.25;;;;;;;21.02;74.83;100521.88;4788743;30;20383;-76
2021/06/16 03:28:26;;;;;;;10.48;7.22;;;;;;;21.03;74.72;100520.00;4788403;30;20043;-77
2021/06/16 03:31:32;;;;;;;8.48;7.65;;;;;;;21.07;74.29;100530.34;4777799;30;20055;-75
2021/06/16 03:34:37;;;;;;;8.60;7.78;;;;;;;21.17;74.37;100528.13;4777926;30;20058;-76
2021/06/16 03:37:44;;;;;;;7.93;7.15;;;;;;;21.27;74.02;100541.41;4788716;30;20062;-76
2021/06/16 03:40:50;;;;;;;7.90;7.10;;;;;;;21.39;73.45;100539.81;4776991;29;20079;-76
2021/06/16 03:43:56;;;;;;;7.88;6.97;;;;;;;21.39;73.46;100540.66;4792266;30;20062;-75
2021/06/16 03:47:04;;;;;;;8.80;6.90;;;;;;;21.48;73.64;100548.72;4774070;30;20083;-76
2021/06/16 03:50:11;;;;;;;10.48;7.03;;;;;;;21.57;73.16;100555.69;4774121;30;20067;-75
2021/06/16 03:53:17;;;;;;;12.93;7.82;;;;;;;21.57;72.63;100555.69;4763129;30;20062;-78
2021/06/16 03:56:23;;;;;;;13.25;8.60;;;;;;;21.55;72.41;100563.25;4773429;30;20063;-75
2021/06/16 03:59:28;;;;;;;13.23;9.70;;;;;;;21.49;72.67;100553.97;4763080;30;20051;-75
2021/06/16 04:02:33;;;;;;;11.73;10.20;;;;;;;21.54;72.23;100547.91;4762957;30;20058;-76
2021/06/16 04:05:38;;;;;;;14.73;10.02;;;;;;;21.64;71.77;100553.84;4762816;30;20048;-78
2021/06/16 04:08:45;;;;;;;15.63;9.65;;;;;;;21.72;71.48;100561.88;4762786;30;20052;-76
2021/06/16 04:11:50;;;;;;;14.52;10.73;;;;;;;21.86;71.18;100560.94;4762725;30;20047;-77
2021/06/16 04:14:55;;;;;;;11.70;10.50;;;;;;;21.90;71.21;100568.53;4773815;30;20401;-77
2021/06/16 04:18:00;;;;;;;13.43;12.02;;;;;;;21.90;70.40;100568.53;4773886;30;20047;-76
2021/06/16 04:21:05;;;;;;;14.00;12.00;;;;;;;22.08;69.99;100575.34;4773183;30;20039;-75
2021/06/16 04:24:09;;;;;;;16.95;12.02;;;;;;;22.01;70.04;100567.13;4773626;30;20048;-76
2021/06/16 04:27:14;;;;;;;15.38;12.30;;;;;;;22.15;69.34;100568.84;4773594;30;20060;-75
2021/06/16 04:30:21;;;;;;;13.13;11.70;;;;;;;22.46;68.49;100574.66;4773229;30;20063;-76
2021/06/16 04:33:26;;;;;;;16.00;11.00;;;;;;;22.82;66.77;100576.22;4773471;30;20052;-77
2021/06/16 04:36:31;;;;;;;14.93;12.68;;;;;;;22.84;66.01;100579.63;4773079;30;20052;-76
2021/06/16 04:39:36;;;;;;;13.07;11.75;;;;;;;22.99;65.63;100578.34;4773363;30;20059;-77
2021/06/16 04:42:41;;;;;;;18.05;12.60;;;;;;;23.30;64.36;100578.56;4791324;30;20399;-76
2021/06/16 04:45:45;;;;;;;14.25;12.52;;;;;;;23.65;63.44;100570.13;4790869;30;20051;-76
2021/06/16 04:48:49;;;;;;;16.02;12.13;;;;;;;23.99;62.49;100574.44;4764403;30;20056;-76
2021/06/16 04:51:54;;;;;;;12.95;11.57;;;;;;;24.27;60.83;100581.31;4774563;30;20052;-77
2021/06/16 04:54:58;;;;;;;13.45;11.73;;;;;;;24.48;59.71;100577.44;4773055;30;20055;-77
2021/06/16 04:58:03;;;;;;;13.90;12.38;;;;;;;24.68;58.54;100580.91;4773004;30;20052;-76
2021/06/16 05:01:07;;;;;;;18.67;12.82;;;;;;;24.48;59.03;100583.75;4771978;30;20389;-76
2021/06/16 05:04:12;;;;;;;14.93;13.20;;;;;;;24.95;57.72;100587.94;4772985;30;20051;-77
2021/06/16 05:07:16;;;;;;;16.45;12.75;;;;;;;25.10;56.85;100576.63;4772816;30;20056;-77
2021/06/16 05:10:20;;;;;;;13.95;12.20;;;;;;;25.58;55.48;100588.69;4773106;30;20044;-76
2021/06/16 05:13:26;;;;;;;18.27;12.70;;;;;;;26.08;53.76;100592.16;4772761;30;20488;-77
2021/06/16 05:16:30;;;;;;;17.75;11.82;;;;;;;26.61;51.84;100591.53;4771289;30;20492;-78
2021/06/16 05:19:34;;;;;;;18.40;11.40;;;;;;;27.14;50.61;100589.66;4772649;30;20056;-77
2021/06/16 05:22:40;;;;;;;15.88;11.85;;;;;;;27.28;49.33;100595.81;4771888;30;20056;-75
2021/06/16 05:25:47;;;;;;;15.45;12.38;;;;;;;26.99;50.67;100586.50;4772047;30;20055;-76
2021/06/16 05:28:51;;;;;;;16.67;11.98;;;;;;;27.41;49.50;100585.41;4772484;30;20060;-75
2021/06/16 05:31:56;;;;;;;13.50;11.75;;;;;;;28.62;47.29;100577.09;4772481;30;20048;-76
2021/06/16 05:35:01;;;;;;;17.63;11.98;;;;;;;29.03;46.21;100576.75;4772383;30;20060;-76
2021/06/16 05:38:09;;;;;;;18.63;12.05;;;;;;;29.17;45.79;100581.94;4772454;30;20052;-76
2021/06/16 05:41:13;;;;;;;17.77;10.98;;;;;;;29.93;43.73;100576.56;4771068;30;20040;-76
2021/06/16 05:44:17;;;;;;;18.23;11.18;;;;;;;30.81;41.95;100586.53;4772442;30;20043;-76
2021/06/16 05:47:22;;;;;;;11.70;10.50;;;;;;;31.93;40.08;100583.59;4771311;30;20044;-76
2021/06/16 05:50:26;;;;;;;16.00;10.15;;;;;;;33.17;37.62;100573.22;4770530;30;20511;-77
2021/06/16 05:53:32;;;;;;;14.35;9.95;;;;;;;33.86;36.31;100578.19;4769730;30;20048;-75
2021/06/16 05:56:39;;;;;;;11.50;8.77;;;;;;;34.69;34.91;100582.06;4754065;30;20055;-76
2021/06/16 05:59:43;;;;;;;13.48;9.63;;;;;;;34.90;34.57;100580.81;4754234;30;20389;-76
2021/06/16 06:02:47;;;;;;;16.48;9.20;;;;;;;35.72;32.85;100591.06;4753158;30;20040;-76
2021/06/16 06:05:52;;;;;;;16.23;9.55;;;;;;;35.36;33.49;100583.31;4751881;30;20056;-76
2021/06/16 06:08:56;;;;;;;12.90;9.60;;;;;;;35.58;33.38;100587.28;4754103;30;20059;-78
2021/06/16 06:12:01;;;;;;;14.05;8.90;;;;;;;36.72;31.54;100590.16;4765959;30;20056;-79
2021/06/16 06:15:06;;;;;;;14.18;8.95;;;;;;;37.41;31.20;100590.25;4768737;30;20059;-76
2021/06/16 06:18:10;;;;;;;11.43;8.63;;;;;;;36.89;31.22;100590.47;4760566;30;20055;-76
2021/06/16 06:21:15;;;;;;;24.10;21.35;;;;;;;36.04;32.55;100596.06;4767525;30;20048;-78
2021/06/16 06:24:19;;;;;;;32.28;28.58;;;;;;;34.59;35.03;100596.09;4769072;30;20400;-76
2021/06/16 06:27:24;;;;;;;14.32;13.00;;;;;;;34.53;34.96;100600.81;4770340;30;20059;-78
2021/06/16 06:30:28;;;;;;;17.20;10.27;;;;;;;33.82;36.34;100591.00;4771257;30;20063;-76
2021/06/16 06:33:33;;;;;;;14.85;9.48;;;;;;;32.97;38.03;100597.38;4770786;30;20051;-75
2021/06/16 06:36:37;;;;;;;11.02;9.57;;;;;;;32.99;38.03;100598.75;4771481;30;20103;-75
2021/06/16 06:39:42;;;;;;;12.23;9.80;;;;;;;33.98;36.54;100593.47;4771168;30;20044;-76
2021/06/16 06:42:47;;;;;;;19.67;10.07;;;;;;;35.33;35.01;100589.47;4771346;30;20071;-76
2021/06/16 06:45:51;;;;;;;15.98;10.50;;;;;;;36.30;32.80;100599.38;4770372;30;20497;-75
2021/06/16 06:48:55;;;;;;;13.63;10.70;;;;;;;36.33;33.07;100605.22;4780696;30;20055;-77
2021/06/16 06:52:00;;;;;;;21.08;9.77;;;;;;;37.11;31.46;100596.31;4788831;30;20056;-76
2021/06/16 06:55:04;;;;;;;19.92;14.02;;;;;;;37.80;31.11;100595.44;4789095;30;20396;-79
2021/06/16 06:58:09;;;;;;;24.70;18.83;;;;;;;37.62;31.14;100583.16;4788947;30;20054;-77
2021/06/16 07:01:14;;;;;;;12.95;10.30;;;;;;;37.36;31.48;100584.69;4775729;30;20052;-76
2021/06/16 07:04:18;;;;;;;16.33;9.80;;;;;;;37.91;30.90;100582.91;4786401;30;20051;-77
2021/06/16 07:07:22;;;;;;;15.52;9.95;;;;;;;39.16;28.93;100574.84;4786183;30;20057;-78
2021/06/16 07:10:27;;;;;;;16.63;9.80;;;;;;;39.03;28.85;100580.22;4785536;30;20055;-77
2021/06/16 07:13:31;;;;;;;12.27;8.23;;;;;;;40.11;28.30;100591.19;4785102;30;20070;-77
2021/06/16 07:16:37;;;;;;;20.90;9.75;;;;;;;41.40;26.31;100586.63;4780221;29;20370;-78
2021/06/16 07:19:41;;;;;;;19.15;9.02;;;;;;;41.39;26.25;100585.78;4791712;30;20050;-79
2021/06/16 07:22:46;;;;;;;13.45;8.20;;;;;;;42.41;25.47;100591.44;4791430;30;20051;-79
2021/06/16 07:25:51;;;;;;;13.57;8.05;;;;;;;41.92;25.83;100592.97;4791663;30;20054;-78
2021/06/16 07:28:55;;;;;;;18.73;7.78;;;;;;;42.35;25.38;100596.44;4792412;30;20063;-77
2021/06/16 07:32:01;;;;;;;14.50;7.18;;;;;;;42.44;24.88;100583.13;4773407;30;20499;-77
2021/06/16 07:35:07;;;;;;;18.27;7.93;;;;;;;42.47;25.17;100582.41;4780989;30;20054;-78
2021/06/16 07:38:12;;;;;;;16.98;7.78;;;;;;;42.23;25.10;100576.59;4791945;30;20050;-77
2021/06/16 07:41:16;;;;;;;20.15;7.68;;;;;;;42.56;24.70;100579.56;4792207;30;20058;-77
2021/06/16 07:44:21;;;;;;;30.80;8.30;;;;;;;42.80;24.88;100581.72;4791788;30;20047;-77
2021/06/16 07:47:25;;;;;;;22.70;7.47;;;;;;;42.58;25.39;100572.41;4791372;30;20054;-76
2021/06/16 07:50:30;;;;;;;22.02;7.97;;;;;;;40.86;26.44;100577.63;4791630;30;20064;-77
2021/06/16 07:53:35;;;;;;;19.95;7.20;;;;;;;40.88;26.43;100588.59;4780531;30;20058;-76
2021/06/16 07:56:41;;;;;;;19.90;7.00;;;;;;;41.47;26.03;100584.13;4788420;29;20527;-77
2021/06/16 07:59:46;;;;;;;21.30;7.60;;;;;;;41.15;26.18;100585.47;4789180;30;20039;-79
2021/06/16 08:02:50;;;;;;;20.52;6.78;;;;;;;40.72;26.75;100590.19;4777212;29;20044;-84
2021/06/16 08:05:55;;;;;;;21.90;6.40;;;;;;;40.51;27.63;100584.41;4773736;30;20051;-83
2021/06/16 08:08:59;;;;;;;23.75;6.88;;;;;;;39.62;27.81;100590.28;4773306;30;20067;-78
2021/06/16 08:12:04;;;;;;;16.45;7.90;;;;;;;38.16;29.78;100585.22;4773605;30;20062;-81
2021/06/16 08:15:09;;;;;;;18.27;8.98;;;;;;;36.18;33.08;100585.00;4773696;30;20051;-80
2021/06/16 08:18:14;;;;;;;11.30;8.23;;;;;;;35.24;34.36;100587.28;4791370;30;20051;-81
2021/06/16 08:21:19;;;;;;;11.93;7.63;;;;;;;33.76;37.14;100587.41;4791045;30;20064;-81
2021/06/16 08:24:24;;;;;;;12.90;8.13;;;;;;;33.86;36.21;100589.31;4790035;29;20052;-83
2021/06/16 08:27:28;;;;;;;16.00;8.20;;;;;;;33.86;36.85;100592.94;4789973;29;20063;-81
2021/06/16 08:30:33;;;;;;;24.33;21.65;;;;;;;33.37;37.79;100586.31;4791077;30;20068;-81
2021/06/16 08:33:39;;;;;;;26.45;17.33;;;;;;;33.59;37.87;100592.44;4790719;30;20051;-80
2021/06/16 08:36:45;;;;;;;15.95;10.32;;;;;;;32.89;38.65;100595.97;4790932;30;20051;-82
2021/06/16 08:39:49;;;;;;;18.13;10.65;;;;;;;31.99;40.37;100599.22;4791094;30;20051;-81
2021/06/16 08:42:54;;;;;;;14.50;9.63;;;;;;;32.41;39.99;100597.22;4789402;29;20048;-80
2021/06/16 08:46:02;;;;;;;17.40;8.60;;;;;;;32.74;39.55;100595.94;4771296;30;20062;-80
2021/06/16 08:49:07;;;;;;;12.82;10.13;;;;;;;32.27;40.21;100596.03;4769196;30;20055;-80
2021/06/16 08:52:12;;;;;;;13.88;8.57;;;;;;;32.23;40.33;100600.47;4758488;30;20055;-80
2021/06/16 08:55:19;;;;;;;15.85;10.07;;;;;;;31.76;41.10;100599.59;4779425;30;20046;-79
2021/06/16 08:58:24;;;;;;;13.60;10.70;;;;;;;31.51;41.93;100603.88;4789932;30;20047;-76
2021/06/16 09:01:29;;;;;;;17.98;10.45;;;;;;;31.48;42.25;100586.91;4789269;30;20051;-78
2021/06/16 09:04:51;;;;;;;13.57;11.75;;;;;;;30.99;43.19;100591.72;4779615;30;20048;-76
2021/06/16 09:07:56;;;;;;;16.48;11.70;;;;;;;30.80;44.29;100598.72;4789699;30;20059;-80
2021/06/16 09:11:00;;;;;;;16.70;11.30;;;;;;;30.74;44.16;100597.81;4769151;30;20051;-80
2021/06/16 09:14:20;;;;;;;16.38;12.00;;;;;;;30.55;44.11;100588.19;4790251;30;20047;-76
2021/06/16 09:17:26;;;;;;;18.10;11.40;;;;;;;30.79;43.86;100588.72;4768542;30;20500;-78
2021/06/16 09:20:45;;;;;;;17.27;11.23;;;;;;;30.49;44.77;100580.09;4768761;30;20047;-81
2021/06/16 09:23:52;;;;;;;17.95;11.25;;;;;;;30.44;44.04;100586.41;4789400;29;20051;-78
2021/06/16 09:26:57;;;;;;;18.73;10.57;;;;;;;30.82;44.18;100588.19;4778701;30;20511;-81
2021/06/16 09:30:03;;;;;;;26.63;15.02;;;;;;;30.72;44.08;100579.78;4790116;30;20047;-81
2021/06/16 09:33:15;;;;;;;29.63;17.95;;;;;;;30.71;44.35;100575.34;4789874;30;20044;-78
2021/06/16 09:36:22;;;;;;;17.48;12.52;;;;;;;30.73;44.32;100578.69;4789979;30;20055;-75
2021/06/16 09:39:28;;;;;;;17.88;11.25;;;;;;;30.39;44.71;100579.97;4786746;29;20480;-79
2021/06/16 09:42:32;;;;;;;12.27;9.80;;;;;;;30.71;44.47;100575.34;4789669;30;20404;-77
2021/06/16 09:45:40;;;;;;;14.63;13.13;;;;;;;30.53;44.13;100578.47;4789444;30;20547;-80
2021/06/16 09:48:46;;;;;;;18.85;12.93;;;;;;;30.48;45.17;100575.63;4789481;30;20511;-77
2021/06/16 09:51:50;;;;;;;18.85;12.00;;;;;;;30.87;44.28;100566.06;4789829;30;20055;-81
2021/06/16 09:54:55;;;;;;;17.40;12.23;;;;;;;30.88;44.25;100573.31;4789555;30;20051;-79
2021/06/16 09:58:02;;;;;;;17.20;12.18;;;;;;;30.91;43.93;100581.13;4789142;30;20047;-82
2021/06/16 10:01:07;;;;;;;18.73;12.32;;;;;;;31.00;43.92;100571.22;4778498;30;20051;-82
2021/06/16 10:04:40;;;;;;;21.80;13.73;;;;;;;31.06;43.53;100572.94;4789599;30;20496;-84
2021/06/16 10:07:46;;;;;;;21.45;18.23;;;;;;;31.26;43.20;100573.09;4789215;30;20055;-78
2021/06/16 10:10:51;;;;;;;18.95;14.63;;;;;;;31.17;42.91;100574.72;4788880;30;20043;-79
2021/06/16 10:13:55;;;;;;;19.30;13.40;;;;;;;31.17;43.11;100579.41;4789736;30;20488;-79
2021/06/16 10:17:00;;;;;;;14.82;10.23;;;;;;;30.91;44.23;100575.59;4778141;30;20051;-81
2021/06/16 10:20:07;;;;;;;14.10;10.45;;;;;;;31.17;43.42;100576.63;4777973;30;20055;-81
2021/06/16 10:23:12;;;;;;;15.15;10.75;;;;;;;30.89;42.50;100581.38;4788890;30;20047;-85
2021/06/16 10:26:28;;;;;;;15.07;8.23;;;;;;;30.90;42.79;100568.34;4771151;30;20039;-85
2021/06/16 10:29:38;;;;;;;13.05;8.65;;;;;;;30.79;43.04;100566.53;4770835;30;20075;-81
2021/06/16 10:32:47;;;;;;;12.73;8.13;;;;;;;31.01;43.38;100558.22;4770968;30;20063;-77
2021/06/16 10:36:06;;;;;;;11.48;8.70;;;;;;;31.23;42.77;100556.19;4771338;30;20511;-84
2021/06/16 10:39:13;;;;;;;19.23;16.05;;;;;;;31.31;41.06;100555.66;4780533;30;20522;-77
2021/06/16 10:42:17;;;;;;;13.55;10.50;;;;;;;31.37;41.87;100563.78;4777955;30;20055;-79
2021/06/16 10:45:21;;;;;;;16.77;7.22;;;;;;;31.23;41.04;100551.44;4788659;30;20047;-80
2021/06/16 10:48:56;;;;;;;8.60;6.55;;;;;;;31.34;41.06;100552.38;4788690;30;20066;-78
2021/06/16 10:52:01;;;;;;;11.18;6.78;;;;;;;31.11;40.84;100550.78;4788301;30;20055;-85
2021/06/16 10:55:07;;;;;;;11.82;5.93;;;;;;;31.04;41.99;100543.78;4788763;30;20123;-77
2021/06/16 10:58:15;;;;;;;13.80;6.72;;;;;;;30.79;39.38;100534.09;4783899;29;20062;-76
2021/06/16 11:01:21;;;;;;;9.68;6.07;;;;;;;30.51;41.35;100539.09;4783054;30;20435;-83
2021/06/16 11:04:31;;;;;;;8.85;5.50;;;;;;;30.67;41.62;100546.47;4787934;29;20058;-80
2021/06/16 11:07:38;;;;;;;11.85;5.30;;;;;;;30.79;41.77;100538.81;4770327;30;20066;-79
2021/06/16 11:10:58;;;;;;;19.10;5.72;;;;;;;30.79;42.42;100539.66;4770486;30;20054;-76
2021/06/16 11:14:02;;;;;;;10.55;5.22;;;;;;;30.81;41.71;100536.63;4770739;30;20079;-77
2021/06/16 11:17:26;;;;;;;14.30;5.78;;;;;;;30.85;41.66;100533.06;4770608;30;20055;-76
2021/06/16 11:20:41;;;;;;;14.18;6.05;;;;;;;30.95;41.02;100537.91;4786267;29;20066;-76
2021/06/16 11:23:51;;;;;;;9.45;6.25;;;;;;;30.64;40.53;100535.91;4787509;29;20066;-78
2021/06/16 11:26:55;;;;;;;9.30;5.20;;;;;;;30.87;41.20;100524.47;4788317;30;20062;-80
2021/06/16 11:30:09;;;;;;;11.88;5.15;;;;;;;31.00;40.97;100534.34;4788455;30;20063;-79
2021/06/16 11:33:17;;;;;;;10.43;6.32;;;;;;;30.72;40.74;100524.34;4788506;30;20059;-78
2021/06/16 11:36:37;;;;;;;13.65;6.00;;;;;;;30.74;41.15;100530.44;4788440;30;20051;-76
2021/06/16 11:39:41;;;;;;;13.68;6.13;;;;;;;30.79;41.77;100519.41;4788023;30;20579;-77
2021/06/16 11:42:46;;;;;;;9.73;5.25;;;;;;;30.76;41.95;100512.44;4788484;30;20064;-75
2021/06/16 11:45:51;;;;;;;8.93;4.57;;;;;;;30.99;41.25;100516.84;4788441;30;20050;-78
2021/06/16 11:49:04;;;;;;;11.65;5.28;;;;;;;31.06;41.04;100519.41;4787819;30;20074;-78
2021/06/16 11:52:08;;;;;;;10.95;5.85;;;;;;;31.03;40.76;100519.94;4788350;30;20441;-77
2021/06/16 11:55:12;;;;;;;10.40;5.03;;;;;;;31.09;40.68;100516.09;4788282;30;20071;-78
2021/06/16 11:58:23;;;;;;;12.18;5.28;;;;;;;31.22;40.45;100504.56;4766122;29;20051;-79
2021/06/16 12:01:26;;;;;;;12.00;5.43;;;;;;;31.29;40.69;100511.56;4776642;30;20048;-77
2021/06/16 12:04:53;;;;;;;13.82;5.13;;;;;;;31.33;41.07;100509.09;4790181;30;20040;-76
2021/06/16 12:08:00;;;;;;;8.32;4.22;;;;;;;31.56;41.38;100502.31;4778781;30;20488;-75
2021/06/16 12:11:20;;;;;;;13.88;4.78;;;;;;;31.58;39.81;100509.25;4780300;30;20062;-76
2021/06/16 12:14:24;;;;;;;9.68;5.28;;;;;;;31.34;39.37;100506.03;4791277;30;20539;-75
2021/06/16 12:17:29;;;;;;;13.00;5.32;;;;;;;31.46;39.54;100501.16;4787593;29;20400;-81
2021/06/16 12:20:40;;;;;;;10.48;5.18;;;;;;;31.48;39.89;100501.72;4790666;30;20047;-76
2021/06/16 12:23:45;;;;;;;13.30;5.65;;;;;;;31.22;40.43;100507.34;4791379;30;20062;-81
2021/06/16 12:27:07;;;;;;;11.00;5.38;;;;;;;31.34;39.82;100506.03;4791089;30;20044;-80
2021/06/16 12:30:12;;;;;;;10.80;5.10;;;;;;;31.50;39.78;100504.25;4791606;30;20054;-76
2021/06/16 12:33:24;;;;;;;9.77;5.55;;;;;;;31.40;38.96;100504.97;4790884;30;20079;-87
2021/06/16 12:36:31;;;;;;;12.00;4.75;;;;;;;31.62;39.83;100495.69;4779811;30;20067;-82
2021/06/16 12:39:50;;;;;;;8.63;4.88;;;;;;;31.92;38.68;100493.91;4791198;30;20053;-83
2021/06/16 12:42:54;;;;;;;13.25;5.43;;;;;;;31.74;38.12;100488.81;4790143;30;20054;-83
2021/06/16 12:45:59;;;;;;;10.02;5.68;;;;;;;31.68;38.91;100489.88;4790527;30;20055;-83
2021/06/16 12:49:25;;;;;;;12.95;5.80;;;;;;;31.57;39.23;100479.84;4778648;30;20059;-85
2021/06/16 12:52:30;;;;;;;11.20;5.10;;;;;;;31.77;39.02;100484.66;4790522;30;20050;-84
2021/06/16 12:55:42;;;;;;;8.60;5.53;;;;;;;31.51;38.76;100481.75;4791063;30;20055;-86
2021/06/16 12:58:48;;;;;;;11.45;5.50;;;;;;;31.60;38.67;100473.78;4790503;30;20055;-76
2021/06/16 13:01:57;;;;;;;13.20;5.38;;;;;;;31.51;40.01;100476.22;4790642;30;20058;-81
2021/06/16 13:05:05;;;;;;;14.15;5.60;;;;;;;31.51;40.50;100484.53;4790513;30;20055;-80
2021/06/16 13:08:09;;;;;;;12.52;5.38;;;;;;;31.29;40.95;100475.47;4779333;30;20063;-79
2021/06/16 13:11:28;;;;;;;9.05;5.05;;;;;;;31.20;41.18;100467.94;4790320;30;20427;-81
2021/06/16 13:14:36;;;;;;;15.63;6.32;;;;;;;31.06;40.65;100472.28;4789880;29;20082;-79
2021/06/16 13:17:45;;;;;;;10.85;5.75;;;;;;;30.78;41.07;100465.94;4790404;30;20404;-79
2021/06/16 13:20:53;;;;;;;14.75;5.68;;;;;;;30.51;42.10;100456.81;4790068;30;20047;-76
2021/06/16 13:23:57;;;;;;;14.13;6.03;;;;;;;30.53;41.54;100462.06;4790220;30;20070;-78
2021/06/16 13:27:04;;;;;;;9.40;5.18;;;;;;;30.59;42.92;100467.41;4789820;30;20050;-76
2021/06/16 13:30:09;;;;;;;12.05;5.07;;;;;;;30.57;44.38;100458.50;4789996;30;20062;-81
2021/06/16 13:33:24;;;;;;;12.52;5.60;;;;;;;30.04;45.59;100464.88;4789707;30;20093;-76
2021/06/16 13:36:29;;;;;;;11.65;5.07;;;;;;;29.88;46.00;100463.00;4789901;30;20377;-80
2021/06/16 13:39:33;;;;;;;8.75;5.05;;;;;;;29.72;47.22;100466.66;4790304;30;20058;-85
2021/06/16 13:42:38;;;;;;;7.70;5.03;;;;;;;29.67;46.77;100458.28;4786387;29;20436;-80
2021/06/16 13:45:43;;;;;;;9.32;5.85;;;;;;;29.43;47.11;100465.97;4787699;29;20514;-83
2021/06/16 13:48:47;;;;;;;11.55;5.70;;;;;;;29.33;47.70;100463.06;4752785;30;20064;-80
2021/06/16 13:51:51;;;;;;;11.75;5.72;;;;;;;29.22;47.68;100466.78;4764865;30;20485;-84
2021/06/16 13:54:56;;;;;;;11.15;4.95;;;;;;;29.09;48.58;100469.84;4752865;30;20073;-80
2021/06/16 13:58:00;;;;;;;9.50;5.22;;;;;;;29.11;48.00;100475.16;4753967;30;20063;-86
2021/06/16 14:01:06;;;;;;;15.10;5.70;;;;;;;29.11;47.90;100477.91;4763029;30;20055;-80
2021/06/16 14:04:14;;;;;;;10.80;5.40;;;;;;;29.23;47.61;100481.44;4763094;30;20055;-85
2021/06/16 14:07:18;;;;;;;8.57;4.57;;;;;;;29.47;47.28;100492.03;4768914;30;20158;-83
2021/06/16 14:10:22;;;;;;;11.10;4.63;;;;;;;29.60;46.78;100485.31;4770505;30;20098;-82
2021/06/16 14:13:27;;;;;;;12.55;5.22;;;;;;;29.55;46.01;100488.00;4771028;30;20054;-84
2021/06/16 14:16:32;;;;;;;11.50;4.63;;;;;;;29.43;45.47;100484.50;4771848;30;20048;-87
2021/06/16 14:19:36;;;;;;;9.63;4.50;;;;;;;29.26;45.71;100479.00;4771517;30;20048;-84